MUC | München Airways

 METAR UND TAF INFORMATION

METAR FOR EGSH
ADDS - METARS form results

(0930 UTC 21 May 2019)
Data provider http://aviationweather.gov/metar/data/
 
METAR text: EGSH 210920Z 32006KT 270V020 9999 SCT021 16/11 Q1017 NOSIG
Conditions at: EGSH (NORWICH WEA CNTR, GB) observed 0920 UTC 21 May 2019
Temperature: 16.0°C (61°F)
Dewpoint: 11.0°C (52°F) [RH = 72%]
Pressure (altimeter): 30.03 inches Hg (1017.0 mb)
Winds: from the NW (320 degrees) at 7 MPH (6 knots; 3.1 m/s)
Visibility: 6 or more miles (10+ km)
Ceiling: at least 12,000 feet AGL
Clouds: scattered clouds at 2100 feet AGL
Weather: no significant weather observed at this time

METAR text: EGSH 210850Z 31007KT 250V010 9999 FEW021 15/10 Q1017 NOSIG
Conditions at: EGSH (NORWICH WEA CNTR, GB) observed 0850 UTC 21 May 2019
Temperature: 15.0°C (59°F)
Dewpoint: 10.0°C (50°F) [RH = 72%]
Pressure (altimeter): 30.03 inches Hg (1017.0 mb)
Winds: from the NW (310 degrees) at 8 MPH (7 knots; 3.6 m/s)
Visibility: 6 or more miles (10+ km)
Ceiling: at least 12,000 feet AGL
Clouds: few clouds at 2100 feet AGL
Weather: no significant weather observed at this time

Forecast for: EGSH (NORWICH WEA CNTR, GB)
Text: TAF EGSH 210757Z 2109/2118 31008KT 9999 FEW030
Forecast period: 0900 to 1800 UTC 21 May 2019
Forecast type: FROM: standard forecast or significant change
Winds: from the NW (310 degrees) at 9 MPH (8 knots; 4.1 m/s)
Visibility: 6 or more miles 10+ km)
Ceiling: at least 12,000 feet AGL
Clouds: few clouds at 3000 feet AGL
Weather: no significant weather forecast for this period

 FLUGHAFENKARTE

 RUNWAY INFORMATION
Runway 04 Runway length 4154 ft Runway width 148 ft
Runway elevation 107 ft Runway displaced threshold 0 ft Runway heading 37
Runway 22 Runway length 4154 ft Runway width 148 ft
Runway elevation 101 ft Runway displaced threshold 0 ft Runway heading 217
Runway 09 Runway length 6040 ft Runway width 148 ft
Runway elevation 117 ft Runway displaced threshold 0 ft Runway heading 90
Runway 27 Runway length 6040 ft Runway width 148 ft
Runway elevation 106 ft Runway displaced threshold 0 ft Runway heading 270

 AIRPORT FREQUENCIES
Type APP Name APP Frequency 119.35 MHZ
Type ATIS Name ATIS Frequency 128.625 MHZ
Type TWR Name TWR Frequency 124.25 MHZ
Type RDR Name Director Frequency 128.325 MHZ

 AIRPORT NEAR NAVIGATION AIDS